sensor_id;sensor_type;location;lat;lon;timestamp;P1;durP1;ratioP1;P2;durP2;ratioP2
12348;SDS011;5974;42.710;27.258;2024-01-06T00:02:07;10.07;;;6.57;;
12348;SDS011;5974;42.710;27.258;2024-01-06T00:04:35;5.80;;;5.20;;
12348;SDS011;5974;42.710;27.258;2024-01-06T00:07:02;7.07;;;5.00;;
12348;SDS011;5974;42.710;27.258;2024-01-06T00:09:29;8.17;;;5.27;;
12348;SDS011;5974;42.710;27.258;2024-01-06T00:11:55;6.57;;;4.80;;
12348;SDS011;5974;42.710;27.258;2024-01-06T00:14:22;5.00;;;4.50;;
12348;SDS011;5974;42.710;27.258;2024-01-06T00:16:49;4.93;;;4.43;;
12348;SDS011;5974;42.710;27.258;2024-01-06T00:19:16;6.30;;;5.70;;
12348;SDS011;5974;42.710;27.258;2024-01-06T00:21:44;8.30;;;6.30;;
12348;SDS011;5974;42.710;27.258;2024-01-06T00:24:11;7.63;;;6.20;;
12348;SDS011;5974;42.710;27.258;2024-01-06T00:26:38;7.30;;;6.10;;
12348;SDS011;5974;42.710;27.258;2024-01-06T00:29:05;5.90;;;5.30;;
12348;SDS011;5974;42.710;27.258;2024-01-06T00:31:31;7.57;;;5.27;;
12348;SDS011;5974;42.710;27.258;2024-01-06T00:33:58;5.90;;;5.27;;
12348;SDS011;5974;42.710;27.258;2024-01-06T00:36:26;6.43;;;5.07;;
12348;SDS011;5974;42.710;27.258;2024-01-06T00:38:54;32.10;;;18.97;;
12348;SDS011;5974;42.710;27.258;2024-01-06T00:41:21;5.80;;;3.90;;
12348;SDS011;5974;42.710;27.258;2024-01-06T00:43:49;5.33;;;4.07;;
12348;SDS011;5974;42.710;27.258;2024-01-06T00:46:16;5.97;;;4.03;;
12348;SDS011;5974;42.710;27.258;2024-01-06T00:48:42;5.93;;;3.90;;
12348;SDS011;5974;42.710;27.258;2024-01-06T00:51:09;6.03;;;4.40;;
12348;SDS011;5974;42.710;27.258;2024-01-06T00:53:36;5.17;;;4.20;;
12348;SDS011;5974;42.710;27.258;2024-01-06T00:56:04;4.77;;;4.20;;
12348;SDS011;5974;42.710;27.258;2024-01-06T00:58:31;4.00;;;3.50;;
12348;SDS011;5974;42.710;27.258;2024-01-06T01:00:58;4.13;;;3.30;;
12348;SDS011;5974;42.710;27.258;2024-01-06T01:03:25;6.07;;;3.17;;
12348;SDS011;5974;42.710;27.258;2024-01-06T01:05:51;4.90;;;3.70;;
12348;SDS011;5974;42.710;27.258;2024-01-06T01:08:18;4.90;;;3.50;;
12348;SDS011;5974;42.710;27.258;2024-01-06T01:10:45;5.80;;;4.00;;
12348;SDS011;5974;42.710;27.258;2024-01-06T01:13:13;4.40;;;3.87;;
12348;SDS011;5974;42.710;27.258;2024-01-06T01:15:40;6.37;;;4.40;;
12348;SDS011;5974;42.710;27.258;2024-01-06T01:18:07;7.70;;;5.10;;
12348;SDS011;5974;42.710;27.258;2024-01-06T01:20:34;5.80;;;4.60;;
12348;SDS011;5974;42.710;27.258;2024-01-06T01:23:00;4.87;;;4.17;;
12348;SDS011;5974;42.710;27.258;2024-01-06T01:25:27;6.67;;;4.93;;
12348;SDS011;5974;42.710;27.258;2024-01-06T01:27:54;5.43;;;4.50;;
12348;SDS011;5974;42.710;27.258;2024-01-06T01:30:22;5.90;;;4.20;;
12348;SDS011;5974;42.710;27.258;2024-01-06T01:32:49;7.20;;;4.73;;
12348;SDS011;5974;42.710;27.258;2024-01-06T01:35:16;4.80;;;4.23;;
12348;SDS011;5974;42.710;27.258;2024-01-06T01:37:42;5.30;;;4.13;;
12348;SDS011;5974;42.710;27.258;2024-01-06T01:40:10;4.60;;;4.17;;
12348;SDS011;5974;42.710;27.258;2024-01-06T01:42:37;7.80;;;4.70;;
12348;SDS011;5974;42.710;27.258;2024-01-06T01:45:04;5.97;;;5.17;;
12348;SDS011;5974;42.710;27.258;2024-01-06T01:47:32;7.27;;;5.60;;
12348;SDS011;5974;42.710;27.258;2024-01-06T01:49:59;5.87;;;4.63;;
12348;SDS011;5974;42.710;27.258;2024-01-06T01:52:27;8.87;;;5.90;;
12348;SDS011;5974;42.710;27.258;2024-01-06T01:54:54;7.67;;;6.13;;
12348;SDS011;5974;42.710;27.258;2024-01-06T01:57:21;12.77;;;7.40;;
12348;SDS011;5974;42.710;27.258;2024-01-06T01:59:51;13.07;;;7.47;;
12348;SDS011;5974;42.710;27.258;2024-01-06T02:02:19;7.90;;;5.73;;
12348;SDS011;5974;42.710;27.258;2024-01-06T02:04:49;8.67;;;5.37;;
12348;SDS011;5974;42.710;27.258;2024-01-06T02:07:16;6.93;;;5.83;;
12348;SDS011;5974;42.710;27.258;2024-01-06T02:09:43;12.43;;;7.70;;
12348;SDS011;5974;42.710;27.258;2024-01-06T02:12:09;16.57;;;9.90;;
12348;SDS011;5974;42.710;27.258;2024-01-06T02:14:36;25.90;;;14.97;;
12348;SDS011;5974;42.710;27.258;2024-01-06T02:17:03;19.53;;;11.03;;
12348;SDS011;5974;42.710;27.258;2024-01-06T02:19:30;16.83;;;11.83;;
12348;SDS011;5974;42.710;27.258;2024-01-06T02:21:58;13.40;;;9.93;;
12348;SDS011;5974;42.710;27.258;2024-01-06T02:24:25;17.80;;;12.13;;
12348;SDS011;5974;42.710;27.258;2024-01-06T02:26:51;18.87;;;13.47;;
12348;SDS011;5974;42.710;27.258;2024-01-06T02:29:18;26.10;;;16.57;;
12348;SDS011;5974;42.710;27.258;2024-01-06T02:31:45;25.27;;;16.20;;
12348;SDS011;5974;42.710;27.258;2024-01-06T02:34:12;23.57;;;16.00;;
12348;SDS011;5974;42.710;27.258;2024-01-06T02:36:38;25.87;;;15.67;;
12348;SDS011;5974;42.710;27.258;2024-01-06T02:39:07;26.10;;;15.00;;
12348;SDS011;5974;42.710;27.258;2024-01-06T02:41:33;17.83;;;12.57;;
12348;SDS011;5974;42.710;27.258;2024-01-06T02:44:00;19.60;;;14.30;;
12348;SDS011;5974;42.710;27.258;2024-01-06T02:46:28;22.63;;;15.30;;
12348;SDS011;5974;42.710;27.258;2024-01-06T02:48:55;22.23;;;14.67;;
12348;SDS011;5974;42.710;27.258;2024-01-06T02:51:22;17.83;;;12.10;;
12348;SDS011;5974;42.710;27.258;2024-01-06T02:53:48;18.43;;;12.37;;
12348;SDS011;5974;42.710;27.258;2024-01-06T02:56:16;11.23;;;8.07;;
12348;SDS011;5974;42.710;27.258;2024-01-06T02:58:43;12.73;;;7.63;;
12348;SDS011;5974;42.710;27.258;2024-01-06T03:01:11;10.20;;;6.60;;
12348;SDS011;5974;42.710;27.258;2024-01-06T03:03:38;10.17;;;8.47;;
12348;SDS011;5974;42.710;27.258;2024-01-06T03:06:05;10.93;;;9.10;;
12348;SDS011;5974;42.710;27.258;2024-01-06T03:08:32;12.60;;;8.60;;
12348;SDS011;5974;42.710;27.258;2024-01-06T03:10:59;10.37;;;8.40;;
12348;SDS011;5974;42.710;27.258;2024-01-06T03:13:28;11.43;;;8.40;;
12348;SDS011;5974;42.710;27.258;2024-01-06T03:15:55;11.13;;;8.40;;
12348;SDS011;5974;42.710;27.258;2024-01-06T03:18:22;9.87;;;7.20;;
12348;SDS011;5974;42.710;27.258;2024-01-06T03:20:49;10.40;;;8.20;;
12348;SDS011;5974;42.710;27.258;2024-01-06T03:23:15;13.17;;;9.93;;
12348;SDS011;5974;42.710;27.258;2024-01-06T03:25:42;16.97;;;15.17;;
12348;SDS011;5974;42.710;27.258;2024-01-06T03:28:09;17.33;;;14.17;;
12348;SDS011;5974;42.710;27.258;2024-01-06T03:30:37;16.27;;;12.03;;
12348;SDS011;5974;42.710;27.258;2024-01-06T03:33:04;15.70;;;13.67;;
12348;SDS011;5974;42.710;27.258;2024-01-06T03:35:31;16.27;;;14.07;;
12348;SDS011;5974;42.710;27.258;2024-01-06T03:37:58;16.03;;;13.53;;
12348;SDS011;5974;42.710;27.258;2024-01-06T03:40:25;18.10;;;12.83;;
12348;SDS011;5974;42.710;27.258;2024-01-06T03:42:52;13.50;;;10.37;;
12348;SDS011;5974;42.710;27.258;2024-01-06T03:45:19;11.90;;;9.63;;
12348;SDS011;5974;42.710;27.258;2024-01-06T03:47:48;12.77;;;11.20;;
12348;SDS011;5974;42.710;27.258;2024-01-06T03:50:15;15.00;;;11.47;;
12348;SDS011;5974;42.710;27.258;2024-01-06T03:52:42;14.20;;;10.40;;
12348;SDS011;5974;42.710;27.258;2024-01-06T03:55:09;15.10;;;10.73;;
12348;SDS011;5974;42.710;27.258;2024-01-06T04:00:28;13.13;;;11.43;;
12348;SDS011;5974;42.710;27.258;2024-01-06T04:02:56;19.00;;;12.43;;
12348;SDS011;5974;42.710;27.258;2024-01-06T04:05:23;16.13;;;11.40;;
12348;SDS011;5974;42.710;27.258;2024-01-06T04:07:50;14.33;;;10.87;;
12348;SDS011;5974;42.710;27.258;2024-01-06T04:10:16;12.37;;;10.60;;
12348;SDS011;5974;42.710;27.258;2024-01-06T04:12:43;11.43;;;7.87;;
12348;SDS011;5974;42.710;27.258;2024-01-06T04:15:10;12.23;;;7.90;;
12348;SDS011;5974;42.710;27.258;2024-01-06T04:17:37;12.83;;;9.07;;
12348;SDS011;5974;42.710;27.258;2024-01-06T04:20:06;21.20;;;13.20;;
12348;SDS011;5974;42.710;27.258;2024-01-06T04:22:33;27.03;;;23.90;;
12348;SDS011;5974;42.710;27.258;2024-01-06T04:24:59;20.47;;;14.60;;
12348;SDS011;5974;42.710;27.258;2024-01-06T04:27:26;17.67;;;13.50;;
12348;SDS011;5974;42.710;27.258;2024-01-06T04:29:53;12.07;;;9.70;;
12348;SDS011;5974;42.710;27.258;2024-01-06T04:32:20;14.57;;;9.63;;
12348;SDS011;5974;42.710;27.258;2024-01-06T04:34:47;11.40;;;10.30;;
12348;SDS011;5974;42.710;27.258;2024-01-06T04:37:15;15.40;;;10.27;;
12348;SDS011;5974;42.710;27.258;2024-01-06T04:39:41;17.27;;;11.20;;
12348;SDS011;5974;42.710;27.258;2024-01-06T04:42:08;18.47;;;12.23;;
12348;SDS011;5974;42.710;27.258;2024-01-06T04:44:35;14.43;;;11.57;;
12348;SDS011;5974;42.710;27.258;2024-01-06T04:47:02;23.27;;;14.70;;
12348;SDS011;5974;42.710;27.258;2024-01-06T04:49:29;26.27;;;15.53;;
12348;SDS011;5974;42.710;27.258;2024-01-06T04:51:56;18.87;;;13.43;;
12348;SDS011;5974;42.710;27.258;2024-01-06T04:54:24;24.27;;;15.73;;
12348;SDS011;5974;42.710;27.258;2024-01-06T04:56:51;25.57;;;18.63;;
12348;SDS011;5974;42.710;27.258;2024-01-06T04:59:17;19.07;;;14.83;;
12348;SDS011;5974;42.710;27.258;2024-01-06T05:01:44;19.13;;;14.97;;
12348;SDS011;5974;42.710;27.258;2024-01-06T05:04:11;19.40;;;15.87;;
12348;SDS011;5974;42.710;27.258;2024-01-06T05:06:38;16.67;;;12.70;;
12348;SDS011;5974;42.710;27.258;2024-01-06T05:09:04;18.13;;;15.20;;
12348;SDS011;5974;42.710;27.258;2024-01-06T05:11:32;15.30;;;11.33;;
12348;SDS011;5974;42.710;27.258;2024-01-06T05:13:59;14.07;;;10.13;;
12348;SDS011;5974;42.710;27.258;2024-01-06T05:16:26;19.80;;;12.47;;
12348;SDS011;5974;42.710;27.258;2024-01-06T05:18:53;18.47;;;12.87;;
12348;SDS011;5974;42.710;27.258;2024-01-06T05:21:20;18.23;;;12.10;;
12348;SDS011;5974;42.710;27.258;2024-01-06T05:23:47;12.27;;;8.60;;
12348;SDS011;5974;42.710;27.258;2024-01-06T05:26:14;20.23;;;14.53;;
12348;SDS011;5974;42.710;27.258;2024-01-06T05:28:42;17.90;;;12.77;;
12348;SDS011;5974;42.710;27.258;2024-01-06T05:31:09;18.53;;;12.77;;
12348;SDS011;5974;42.710;27.258;2024-01-06T05:33:36;10.90;;;6.80;;
12348;SDS011;5974;42.710;27.258;2024-01-06T05:36:03;11.53;;;7.30;;
12348;SDS011;5974;42.710;27.258;2024-01-06T05:38:30;10.50;;;7.20;;
12348;SDS011;5974;42.710;27.258;2024-01-06T05:40:57;11.23;;;8.30;;
12348;SDS011;5974;42.710;27.258;2024-01-06T05:43:24;15.53;;;10.10;;
12348;SDS011;5974;42.710;27.258;2024-01-06T05:45:52;17.37;;;10.27;;
12348;SDS011;5974;42.710;27.258;2024-01-06T05:48:19;14.60;;;10.17;;
12348;SDS011;5974;42.710;27.258;2024-01-06T05:50:46;16.10;;;10.23;;
12348;SDS011;5974;42.710;27.258;2024-01-06T05:53:13;16.83;;;12.30;;
12348;SDS011;5974;42.710;27.258;2024-01-06T05:55:43;20.03;;;14.40;;
12348;SDS011;5974;42.710;27.258;2024-01-06T05:58:10;24.20;;;15.43;;
12348;SDS011;5974;42.710;27.258;2024-01-06T06:00:37;17.67;;;13.23;;
12348;SDS011;5974;42.710;27.258;2024-01-06T06:03:05;19.30;;;13.63;;
12348;SDS011;5974;42.710;27.258;2024-01-06T06:05:32;25.10;;;18.27;;
12348;SDS011;5974;42.710;27.258;2024-01-06T06:07:59;30.93;;;22.67;;
12348;SDS011;5974;42.710;27.258;2024-01-06T06:10:26;31.03;;;22.13;;
12348;SDS011;5974;42.710;27.258;2024-01-06T06:13:05;28.07;;;21.60;;
12348;SDS011;5974;42.710;27.258;2024-01-06T06:15:34;26.87;;;20.13;;
12348;SDS011;5974;42.710;27.258;2024-01-06T06:18:01;26.87;;;19.57;;
12348;SDS011;5974;42.710;27.258;2024-01-06T06:20:30;29.57;;;20.93;;
12348;SDS011;5974;42.710;27.258;2024-01-06T06:22:56;25.93;;;19.17;;
12348;SDS011;5974;42.710;27.258;2024-01-06T06:25:23;28.23;;;21.57;;
12348;SDS011;5974;42.710;27.258;2024-01-06T06:27:50;20.77;;;15.10;;
12348;SDS011;5974;42.710;27.258;2024-01-06T06:30:17;19.70;;;15.00;;
12348;SDS011;5974;42.710;27.258;2024-01-06T06:32:44;17.30;;;14.40;;
12348;SDS011;5974;42.710;27.258;2024-01-06T06:35:11;15.83;;;13.17;;
12348;SDS011;5974;42.710;27.258;2024-01-06T06:37:39;18.87;;;16.07;;
12348;SDS011;5974;42.710;27.258;2024-01-06T06:40:06;22.20;;;16.20;;
12348;SDS011;5974;42.710;27.258;2024-01-06T06:42:34;33.17;;;20.80;;
12348;SDS011;5974;42.710;27.258;2024-01-06T06:45:01;26.23;;;20.60;;
12348;SDS011;5974;42.710;27.258;2024-01-06T06:47:27;27.87;;;20.83;;
12348;SDS011;5974;42.710;27.258;2024-01-06T06:49:54;29.67;;;20.97;;
12348;SDS011;5974;42.710;27.258;2024-01-06T06:52:21;35.10;;;23.87;;
12348;SDS011;5974;42.710;27.258;2024-01-06T06:54:49;26.97;;;20.77;;
12348;SDS011;5974;42.710;27.258;2024-01-06T06:57:17;32.70;;;25.93;;
12348;SDS011;5974;42.710;27.258;2024-01-06T06:59:44;33.37;;;25.70;;
12348;SDS011;5974;42.710;27.258;2024-01-06T07:02:11;39.37;;;30.83;;
12348;SDS011;5974;42.710;27.258;2024-01-06T07:04:38;48.97;;;35.53;;
12348;SDS011;5974;42.710;27.258;2024-01-06T07:07:04;46.60;;;35.73;;
12348;SDS011;5974;42.710;27.258;2024-01-06T07:09:31;43.00;;;34.73;;
12348;SDS011;5974;42.710;27.258;2024-01-06T07:11:59;36.87;;;32.30;;
12348;SDS011;5974;42.710;27.258;2024-01-06T07:14:26;36.70;;;32.83;;
12348;SDS011;5974;42.710;27.258;2024-01-06T07:16:53;46.37;;;41.63;;
12348;SDS011;5974;42.710;27.258;2024-01-06T07:19:20;44.13;;;39.57;;
12348;SDS011;5974;42.710;27.258;2024-01-06T07:21:46;29.43;;;26.07;;
12348;SDS011;5974;42.710;27.258;2024-01-06T07:24:13;24.30;;;21.63;;
12348;SDS011;5974;42.710;27.258;2024-01-06T07:26:40;26.40;;;19.60;;
12348;SDS011;5974;42.710;27.258;2024-01-06T07:29:08;26.00;;;18.10;;
12348;SDS011;5974;42.710;27.258;2024-01-06T07:31:35;15.17;;;11.23;;
12348;SDS011;5974;42.710;27.258;2024-01-06T07:34:02;14.63;;;10.30;;
12348;SDS011;5974;42.710;27.258;2024-01-06T07:36:28;16.33;;;12.13;;
12348;SDS011;5974;42.710;27.258;2024-01-06T07:38:55;14.73;;;9.87;;
12348;SDS011;5974;42.710;27.258;2024-01-06T07:41:22;25.07;;;18.23;;
12348;SDS011;5974;42.710;27.258;2024-01-06T07:43:49;26.17;;;19.80;;
12348;SDS011;5974;42.710;27.258;2024-01-06T07:46:17;21.47;;;15.33;;
12348;SDS011;5974;42.710;27.258;2024-01-06T07:48:44;18.07;;;10.07;;
12348;SDS011;5974;42.710;27.258;2024-01-06T07:51:11;15.17;;;12.73;;
12348;SDS011;5974;42.710;27.258;2024-01-06T07:53:37;20.53;;;12.87;;
12348;SDS011;5974;42.710;27.258;2024-01-06T07:56:05;17.80;;;11.70;;
12348;SDS011;5974;42.710;27.258;2024-01-06T07:58:32;15.80;;;11.90;;
12348;SDS011;5974;42.710;27.258;2024-01-06T08:00:59;20.20;;;11.77;;
12348;SDS011;5974;42.710;27.258;2024-01-06T08:03:26;16.83;;;10.17;;
12348;SDS011;5974;42.710;27.258;2024-01-06T08:05:53;12.50;;;10.27;;
12348;SDS011;5974;42.710;27.258;2024-01-06T08:08:21;9.77;;;7.33;;
12348;SDS011;5974;42.710;27.258;2024-01-06T08:10:48;13.00;;;8.80;;
12348;SDS011;5974;42.710;27.258;2024-01-06T08:13:15;9.60;;;7.00;;
12348;SDS011;5974;42.710;27.258;2024-01-06T08:15:42;15.40;;;9.40;;
12348;SDS011;5974;42.710;27.258;2024-01-06T08:18:08;12.03;;;7.50;;
12348;SDS011;5974;42.710;27.258;2024-01-06T08:20:37;15.43;;;8.67;;
12348;SDS011;5974;42.710;27.258;2024-01-06T08:23:03;10.43;;;7.80;;
12348;SDS011;5974;42.710;27.258;2024-01-06T08:25:30;17.13;;;8.77;;
12348;SDS011;5974;42.710;27.258;2024-01-06T08:27:57;12.63;;;9.27;;
12348;SDS011;5974;42.710;27.258;2024-01-06T08:30:24;14.80;;;8.70;;
12348;SDS011;5974;42.710;27.258;2024-01-06T08:32:51;10.47;;;6.63;;
12348;SDS011;5974;42.710;27.258;2024-01-06T08:35:17;11.60;;;6.17;;
12348;SDS011;5974;42.710;27.258;2024-01-06T08:37:46;9.37;;;5.80;;
12348;SDS011;5974;42.710;27.258;2024-01-06T08:40:13;10.23;;;6.70;;
12348;SDS011;5974;42.710;27.258;2024-01-06T08:42:39;12.23;;;7.77;;
12348;SDS011;5974;42.710;27.258;2024-01-06T08:45:07;11.63;;;7.77;;
12348;SDS011;5974;42.710;27.258;2024-01-06T08:47:34;10.53;;;8.50;;
12348;SDS011;5974;42.710;27.258;2024-01-06T08:50:03;10.33;;;7.37;;
12348;SDS011;5974;42.710;27.258;2024-01-06T08:52:30;10.27;;;7.43;;
12348;SDS011;5974;42.710;27.258;2024-01-06T08:54:58;9.43;;;7.07;;
12348;SDS011;5974;42.710;27.258;2024-01-06T08:57:25;11.30;;;8.07;;
12348;SDS011;5974;42.710;27.258;2024-01-06T08:59:52;11.33;;;7.47;;
12348;SDS011;5974;42.710;27.258;2024-01-06T09:02:19;14.17;;;7.40;;
12348;SDS011;5974;42.710;27.258;2024-01-06T09:04:46;11.03;;;6.63;;
12348;SDS011;5974;42.710;27.258;2024-01-06T09:07:13;9.63;;;7.27;;
12348;SDS011;5974;42.710;27.258;2024-01-06T09:09:41;10.20;;;6.67;;
12348;SDS011;5974;42.710;27.258;2024-01-06T09:12:09;12.27;;;7.43;;
12348;SDS011;5974;42.710;27.258;2024-01-06T09:14:36;11.57;;;7.03;;
12348;SDS011;5974;42.710;27.258;2024-01-06T09:17:03;10.73;;;7.67;;
12348;SDS011;5974;42.710;27.258;2024-01-06T09:19:30;11.23;;;7.23;;
12348;SDS011;5974;42.710;27.258;2024-01-06T09:21:57;12.00;;;7.97;;
12348;SDS011;5974;42.710;27.258;2024-01-06T09:24:23;11.60;;;8.30;;
12348;SDS011;5974;42.710;27.258;2024-01-06T09:26:50;8.03;;;6.23;;
12348;SDS011;5974;42.710;27.258;2024-01-06T09:29:18;12.57;;;9.17;;
12348;SDS011;5974;42.710;27.258;2024-01-06T09:31:46;9.97;;;6.80;;
12348;SDS011;5974;42.710;27.258;2024-01-06T09:34:13;12.17;;;6.83;;
12348;SDS011;5974;42.710;27.258;2024-01-06T09:36:40;9.17;;;5.87;;
12348;SDS011;5974;42.710;27.258;2024-01-06T09:39:06;10.50;;;6.60;;
12348;SDS011;5974;42.710;27.258;2024-01-06T09:41:33;11.03;;;6.60;;
12348;SDS011;5974;42.710;27.258;2024-01-06T09:44:00;15.67;;;7.90;;
12348;SDS011;5974;42.710;27.258;2024-01-06T09:46:28;10.60;;;6.63;;
12348;SDS011;5974;42.710;27.258;2024-01-06T09:48:55;12.50;;;6.80;;
12348;SDS011;5974;42.710;27.258;2024-01-06T09:51:23;11.03;;;6.97;;
12348;SDS011;5974;42.710;27.258;2024-01-06T09:53:52;11.80;;;6.17;;
12348;SDS011;5974;42.710;27.258;2024-01-06T09:56:24;12.97;;;7.83;;
12348;SDS011;5974;42.710;27.258;2024-01-06T09:58:52;17.00;;;9.60;;
12348;SDS011;5974;42.710;27.258;2024-01-06T10:01:18;23.40;;;12.20;;
12348;SDS011;5974;42.710;27.258;2024-01-06T10:03:47;17.97;;;10.57;;
12348;SDS011;5974;42.710;27.258;2024-01-06T10:06:14;20.97;;;16.23;;
12348;SDS011;5974;42.710;27.258;2024-01-06T10:08:42;20.00;;;13.73;;
12348;SDS011;5974;42.710;27.258;2024-01-06T10:11:09;12.37;;;9.40;;
12348;SDS011;5974;42.710;27.258;2024-01-06T10:13:36;15.40;;;10.47;;
12348;SDS011;5974;42.710;27.258;2024-01-06T10:16:03;14.50;;;7.50;;
12348;SDS011;5974;42.710;27.258;2024-01-06T10:18:30;11.27;;;7.97;;
12348;SDS011;5974;42.710;27.258;2024-01-06T10:20:59;16.30;;;10.83;;
12348;SDS011;5974;42.710;27.258;2024-01-06T10:23:26;11.80;;;8.63;;
12348;SDS011;5974;42.710;27.258;2024-01-06T10:25:54;12.80;;;10.47;;
12348;SDS011;5974;42.710;27.258;2024-01-06T10:28:21;22.47;;;10.70;;
12348;SDS011;5974;42.710;27.258;2024-01-06T10:30:48;14.50;;;9.23;;
12348;SDS011;5974;42.710;27.258;2024-01-06T10:33:17;17.33;;;9.70;;
12348;SDS011;5974;42.710;27.258;2024-01-06T10:35:45;11.00;;;6.70;;
12348;SDS011;5974;42.710;27.258;2024-01-06T10:38:14;11.93;;;6.17;;
12348;SDS011;5974;42.710;27.258;2024-01-06T10:40:49;29.90;;;24.07;;
12348;SDS011;5974;42.710;27.258;2024-01-06T10:43:22;22.60;;;19.73;;
12348;SDS011;5974;42.710;27.258;2024-01-06T10:45:51;18.10;;;15.07;;
12348;SDS011;5974;42.710;27.258;2024-01-06T10:48:20;15.13;;;8.47;;
12348;SDS011;5974;42.710;27.258;2024-01-06T10:50:48;9.33;;;6.13;;
12348;SDS011;5974;42.710;27.258;2024-01-06T10:53:18;12.00;;;6.50;;
12348;SDS011;5974;42.710;27.258;2024-01-06T10:55:48;10.97;;;6.50;;
12348;SDS011;5974;42.710;27.258;2024-01-06T10:58:16;14.77;;;8.20;;
12348;SDS011;5974;42.710;27.258;2024-01-06T11:00:43;12.70;;;8.03;;
12348;SDS011;5974;42.710;27.258;2024-01-06T11:03:10;11.90;;;6.10;;
12348;SDS011;5974;42.710;27.258;2024-01-06T11:05:39;10.70;;;6.27;;
12348;SDS011;5974;42.710;27.258;2024-01-06T11:08:07;9.07;;;6.43;;
12348;SDS011;5974;42.710;27.258;2024-01-06T11:10:37;10.73;;;6.53;;
12348;SDS011;5974;42.710;27.258;2024-01-06T11:13:09;11.20;;;7.43;;
12348;SDS011;5974;42.710;27.258;2024-01-06T11:15:43;13.87;;;8.20;;
12348;SDS011;5974;42.710;27.258;2024-01-06T11:18:30;12.63;;;7.90;;
12348;SDS011;5974;42.710;27.258;2024-01-06T11:21:14;18.07;;;13.47;;
12348;SDS011;5974;42.710;27.258;2024-01-06T11:26:49;9.20;;;7.20;;
12348;SDS011;5974;42.710;27.258;2024-01-06T11:29:18;11.73;;;7.83;;
12348;SDS011;5974;42.710;27.258;2024-01-06T11:34:49;9.17;;;4.60;;
12348;SDS011;5974;42.710;27.258;2024-01-06T11:37:18;11.63;;;5.17;;
12348;SDS011;5974;42.710;27.258;2024-01-06T11:39:46;11.27;;;5.30;;
12348;SDS011;5974;42.710;27.258;2024-01-06T11:42:14;15.00;;;7.20;;
12348;SDS011;5974;42.710;27.258;2024-01-06T11:44:43;9.63;;;4.97;;
12348;SDS011;5974;42.710;27.258;2024-01-06T11:47:10;8.17;;;5.50;;
12348;SDS011;5974;42.710;27.258;2024-01-06T11:49:38;10.93;;;5.40;;
12348;SDS011;5974;42.710;27.258;2024-01-06T11:52:05;7.87;;;4.50;;
12348;SDS011;5974;42.710;27.258;2024-01-06T11:54:32;10.70;;;5.63;;
12348;SDS011;5974;42.710;27.258;2024-01-06T11:56:59;7.73;;;4.67;;
12348;SDS011;5974;42.710;27.258;2024-01-06T11:59:27;7.33;;;4.60;;
12348;SDS011;5974;42.710;27.258;2024-01-06T12:01:54;14.40;;;7.90;;
12348;SDS011;5974;42.710;27.258;2024-01-06T12:04:21;12.63;;;7.27;;
12348;SDS011;5974;42.710;27.258;2024-01-06T12:06:50;10.83;;;7.30;;
12348;SDS011;5974;42.710;27.258;2024-01-06T12:09:17;9.27;;;6.47;;
12348;SDS011;5974;42.710;27.258;2024-01-06T12:11:45;17.57;;;8.30;;
12348;SDS011;5974;42.710;27.258;2024-01-06T12:14:12;15.60;;;8.63;;
12348;SDS011;5974;42.710;27.258;2024-01-06T12:16:40;14.70;;;8.60;;
12348;SDS011;5974;42.710;27.258;2024-01-06T12:19:08;8.63;;;5.40;;
12348;SDS011;5974;42.710;27.258;2024-01-06T12:21:35;6.23;;;3.80;;
12348;SDS011;5974;42.710;27.258;2024-01-06T12:24:18;10.90;;;6.67;;
12348;SDS011;5974;42.710;27.258;2024-01-06T12:26:46;11.73;;;5.20;;
12348;SDS011;5974;42.710;27.258;2024-01-06T12:29:13;8.73;;;4.67;;
12348;SDS011;5974;42.710;27.258;2024-01-06T12:31:42;10.37;;;4.27;;
12348;SDS011;5974;42.710;27.258;2024-01-06T12:34:10;12.37;;;4.13;;
12348;SDS011;5974;42.710;27.258;2024-01-06T12:36:37;9.33;;;4.43;;
12348;SDS011;5974;42.710;27.258;2024-01-06T12:39:04;11.00;;;6.37;;
12348;SDS011;5974;42.710;27.258;2024-01-06T12:41:31;9.37;;;5.70;;
12348;SDS011;5974;42.710;27.258;2024-01-06T12:43:59;15.77;;;7.83;;
12348;SDS011;5974;42.710;27.258;2024-01-06T12:46:27;12.83;;;7.10;;
12348;SDS011;5974;42.710;27.258;2024-01-06T12:48:55;15.93;;;7.13;;
12348;SDS011;5974;42.710;27.258;2024-01-06T12:51:22;7.43;;;5.43;;
12348;SDS011;5974;42.710;27.258;2024-01-06T12:53:49;12.73;;;8.20;;
12348;SDS011;5974;42.710;27.258;2024-01-06T12:56:15;11.53;;;6.40;;
12348;SDS011;5974;42.710;27.258;2024-01-06T12:58:42;12.67;;;10.43;;
12348;SDS011;5974;42.710;27.258;2024-01-06T13:01:09;15.10;;;7.07;;
12348;SDS011;5974;42.710;27.258;2024-01-06T13:03:36;9.60;;;5.80;;
12348;SDS011;5974;42.710;27.258;2024-01-06T13:06:05;10.90;;;7.47;;
12348;SDS011;5974;42.710;27.258;2024-01-06T13:08:32;13.07;;;8.33;;
12348;SDS011;5974;42.710;27.258;2024-01-06T13:10:59;11.23;;;6.40;;
12348;SDS011;5974;42.710;27.258;2024-01-06T13:13:26;12.77;;;6.07;;
12348;SDS011;5974;42.710;27.258;2024-01-06T13:15:53;10.87;;;6.80;;
12348;SDS011;5974;42.710;27.258;2024-01-06T13:18:20;12.60;;;7.80;;
12348;SDS011;5974;42.710;27.258;2024-01-06T13:20:46;18.30;;;9.90;;
12348;SDS011;5974;42.710;27.258;2024-01-06T13:23:16;11.47;;;7.87;;
12348;SDS011;5974;42.710;27.258;2024-01-06T13:25:43;18.97;;;11.93;;
12348;SDS011;5974;42.710;27.258;2024-01-06T13:28:09;19.07;;;11.13;;
12348;SDS011;5974;42.710;27.258;2024-01-06T13:30:37;25.20;;;14.97;;
12348;SDS011;5974;42.710;27.258;2024-01-06T13:33:04;23.53;;;15.43;;
12348;SDS011;5974;42.710;27.258;2024-01-06T13:35:32;20.10;;;14.33;;
12348;SDS011;5974;42.710;27.258;2024-01-06T13:37:59;23.83;;;14.17;;
12348;SDS011;5974;42.710;27.258;2024-01-06T13:40:27;16.77;;;10.63;;
12348;SDS011;5974;42.710;27.258;2024-01-06T13:42:53;31.83;;;17.57;;
12348;SDS011;5974;42.710;27.258;2024-01-06T13:45:20;41.70;;;23.03;;
12348;SDS011;5974;42.710;27.258;2024-01-06T13:47:47;36.60;;;21.20;;
12348;SDS011;5974;42.710;27.258;2024-01-06T13:50:15;45.00;;;27.47;;
12348;SDS011;5974;42.710;27.258;2024-01-06T13:52:43;30.17;;;20.53;;
12348;SDS011;5974;42.710;27.258;2024-01-06T13:55:10;27.63;;;18.57;;
12348;SDS011;5974;42.710;27.258;2024-01-06T13:57:39;11.90;;;7.27;;
12348;SDS011;5974;42.710;27.258;2024-01-06T14:00:07;8.80;;;6.50;;
12348;SDS011;5974;42.710;27.258;2024-01-06T14:02:34;38.23;;;27.57;;
12348;SDS011;5974;42.710;27.258;2024-01-06T14:05:01;46.03;;;34.00;;
12348;SDS011;5974;42.710;27.258;2024-01-06T14:07:28;10.33;;;5.60;;
12348;SDS011;5974;42.710;27.258;2024-01-06T14:09:55;9.83;;;5.73;;
12348;SDS011;5974;42.710;27.258;2024-01-06T14:12:22;15.33;;;8.00;;
12348;SDS011;5974;42.710;27.258;2024-01-06T14:14:51;16.47;;;11.30;;
12348;SDS011;5974;42.710;27.258;2024-01-06T14:17:17;17.43;;;9.13;;
12348;SDS011;5974;42.710;27.258;2024-01-06T14:19:44;24.73;;;8.93;;
12348;SDS011;5974;42.710;27.258;2024-01-06T14:22:11;18.53;;;10.93;;
12348;SDS011;5974;42.710;27.258;2024-01-06T14:24:39;15.30;;;8.50;;
12348;SDS011;5974;42.710;27.258;2024-01-06T14:27:06;14.20;;;8.13;;
12348;SDS011;5974;42.710;27.258;2024-01-06T14:29:33;13.03;;;7.50;;
12348;SDS011;5974;42.710;27.258;2024-01-06T14:32:02;8.80;;;6.07;;
12348;SDS011;5974;42.710;27.258;2024-01-06T14:34:29;10.53;;;6.67;;
12348;SDS011;5974;42.710;27.258;2024-01-06T14:36:56;12.43;;;6.80;;
12348;SDS011;5974;42.710;27.258;2024-01-06T14:39:23;10.10;;;6.10;;
12348;SDS011;5974;42.710;27.258;2024-01-06T14:41:49;10.67;;;5.77;;